Delray Beach, FL

7:16 PM EDT on March 26, 2015 (GMT -0400)
Palm Beach International | | Change Station
CLOSE
Current Station
Airport
Location: West Palm Beach,
Elevation: 20 ft
Nearby Weather Stations

Elev 20 ft 26.68 °N, 80.10 °W | Updated 23 minutes ago

Partly Cloudy
Partly Cloudy
81 °F
Feels Like 84 °F
N
15
Wind Variable Wind from South
Gusts 24 mph

Today
High -- | Low -- °F
--% Chance of Precip.
Yesterday
High -- | Low -- °F
Precip. -- in
7:18 AM 7:34 PM
Waxing Crescent, 46% visible
Pressure 29.91 in
Visibility 10.0 miles
Clouds Few 2700 ft
Scattered Clouds 4500 ft
Mostly Cloudy 15000 ft
Heat Index 84 °F
Dew Point 70 °F
Humidity 69%
Rainfall 0.05 in
Snow Depth Not available.
UV 0 out of 12
Pollen 7.50 out of 12
Air Quality Not available.
Flu Activity Not available.
METAR KPBI 262253Z 17013G21KT 10SM FEW027 SCT045 BKN150 27/21 A2991 RMK AO2 PK WND 16027/2207 TSE12 SLP126 OCNL LTGIC DSNT NW-N CB DSNT NW-N T02720211

More Conditions Fewer Conditions

Pressure 29.91 in
Visibility 10.0 miles
Clouds Few 2700 ft
Scattered Clouds 4500 ft
Mostly Cloudy 15000 ft
Heat Index 84 °F
Dew Point 70 °F
Humidity 69%
Rainfall 0.05 in
Snow Depth Not available.
UV 0 out of 12
Pollen 7.50 out of 12
Air Quality Not available.
Flu Activity Not available.
METAR KPBI 262253Z 17013G21KT 10SM FEW027 SCT045 BKN150 27/21 A2991 RMK AO2 PK WND 16027/2207 TSE12 SLP126 OCNL LTGIC DSNT NW-N CB DSNT NW-N T02720211

More Conditions Fewer Conditions

10-Day Weather Forecast

Almanac

Astronomy

Mar. 26, 2015 Rise Set
Actual Time
Civil Twilight
Nautical Twilight
Astronomical Twilight
Moon
Length of Visible Light
Length of Day
Tomorrow will be .
, % of the Moon is Illuminated

Today's Extremes

State Highs State Lows

Community

WunderPhotos

Upload Photos

1,808,633 photos uploaded!

WunderBlogs® & News

Nearby

Air Quality

  Air Quality AQ Index Pollutant
Not available.

Snow Depth

Station Depth Elevation

Earthquake Activity

City Distance Mag. Time & Date
Minimum magnitude displayed is 2.5.

Coastal Water Temperatures

Place Temperature

Stations

Nearby Weather Stations

Station Location Temp. Windchill Dew Point Humidity Wind Precip. Elev Updated Type